logo
Rechercher aéroport 
image banner adimage banner adimage banner ad
image banner ad

MZPG - Punta Gorda Airstrip

Situé à Punta Gorda, Belize

ICAO - , IATA - PND

Données fournies par Airmate  

Information générale

Coordonnées: N16°6'8" W88°48'29"
Élévation : 59 feet MSL.
 
Voir autres Aéroports à Toledo District

Données opérationnelles

Special qualification required
Heure actuelle UTC:
Heure actuelle locale:
Météo à : - ( 0 km )
METAR: KUKF 232010Z AUTO 01006KT 10SM SCT032 SCT043 OVC050 23/20 A3014 RMK AO2
Voir NOTAMs / SUP AIP / TFR affectant cet aéroport [VIEW]
Fréquences de communication: [VIEW]

Pistes:

Identifiant RWYQFULongueur (ft)Largeur (ft)SurfaceLDA (ft)
06233626UNK
24233626UNK

Coordonnées de l'aéroport

Adresse: Punta Gorda Belize

Vue satellite de MZPG